sensor_id;sensor_type;location;lat;lon;timestamp;pressure;altitude;pressure_sealevel;temperature;humidity
77877;BME280;67251;50.844;7.978;2023-11-19T00:00:09;98403.00;;;6.47;100.00
77877;BME280;67251;50.844;7.978;2023-11-19T00:02:38;98388.69;;;6.48;100.00
77877;BME280;67251;50.844;7.978;2023-11-19T00:05:04;98383.22;;;6.50;100.00
77877;BME280;67251;50.844;7.978;2023-11-19T00:07:37;98383.03;;;6.51;100.00
77877;BME280;67251;50.844;7.978;2023-11-19T00:10:16;98378.97;;;6.55;100.00
77877;BME280;67251;50.844;7.978;2023-11-19T00:12:47;98371.72;;;6.64;100.00
77877;BME280;67251;50.844;7.978;2023-11-19T00:15:13;98369.69;;;6.66;100.00
77877;BME280;67251;50.844;7.978;2023-11-19T00:17:43;98377.47;;;6.68;100.00
77877;BME280;67251;50.844;7.978;2023-11-19T00:20:14;98379.13;;;6.69;100.00
77877;BME280;67251;50.844;7.978;2023-11-19T00:22:40;98371.78;;;6.71;100.00
77877;BME280;67251;50.844;7.978;2023-11-19T00:25:07;98375.25;;;6.71;100.00
77877;BME280;67251;50.844;7.978;2023-11-19T00:27:32;98364.44;;;6.73;100.00
77877;BME280;67251;50.844;7.978;2023-11-19T00:29:58;98357.09;;;6.75;100.00
77877;BME280;67251;50.844;7.978;2023-11-19T00:32:23;98346.94;;;6.78;100.00
77877;BME280;67251;50.844;7.978;2023-11-19T00:34:49;98350.19;;;6.80;100.00
77877;BME280;67251;50.844;7.978;2023-11-19T00:37:15;98350.66;;;6.84;100.00
77877;BME280;67251;50.844;7.978;2023-11-19T00:39:41;98334.75;;;6.90;100.00
77877;BME280;67251;50.844;7.978;2023-11-19T00:42:06;98332.75;;;6.93;100.00
77877;BME280;67251;50.844;7.978;2023-11-19T00:44:31;98325.59;;;6.93;100.00
77877;BME280;67251;50.844;7.978;2023-11-19T00:46:57;98341.53;;;6.93;100.00
77877;BME280;67251;50.844;7.978;2023-11-19T00:49:23;98323.75;;;6.94;100.00
77877;BME280;67251;50.844;7.978;2023-11-19T00:51:48;98320.50;;;6.98;100.00
77877;BME280;67251;50.844;7.978;2023-11-19T00:54:14;98306.66;;;7.03;100.00
77877;BME280;67251;50.844;7.978;2023-11-19T00:56:39;98319.75;;;7.04;100.00
77877;BME280;67251;50.844;7.978;2023-11-19T00:59:05;98320.38;;;7.06;100.00
77877;BME280;67251;50.844;7.978;2023-11-19T01:01:30;98309.34;;;7.09;100.00
77877;BME280;67251;50.844;7.978;2023-11-19T01:03:56;98310.00;;;7.11;100.00
77877;BME280;67251;50.844;7.978;2023-11-19T01:06:32;98311.25;;;7.15;100.00
77877;BME280;67251;50.844;7.978;2023-11-19T01:08:58;98313.50;;;7.18;100.00
77877;BME280;67251;50.844;7.978;2023-11-19T01:11:24;98301.84;;;7.20;100.00
77877;BME280;67251;50.844;7.978;2023-11-19T01:13:50;98299.63;;;7.23;100.00
77877;BME280;67251;50.844;7.978;2023-11-19T01:16:16;98295.78;;;7.26;100.00
77877;BME280;67251;50.844;7.978;2023-11-19T01:18:42;98287.59;;;7.27;100.00
77877;BME280;67251;50.844;7.978;2023-11-19T01:21:07;98290.06;;;7.29;100.00
77877;BME280;67251;50.844;7.978;2023-11-19T01:23:34;98279.03;;;7.32;100.00
77877;BME280;67251;50.844;7.978;2023-11-19T01:25:59;98286.63;;;7.35;100.00
77877;BME280;67251;50.844;7.978;2023-11-19T01:28:24;98282.75;;;7.37;100.00
77877;BME280;67251;50.844;7.978;2023-11-19T01:30:53;98281.72;;;7.38;100.00
77877;BME280;67251;50.844;7.978;2023-11-19T01:33:18;98269.25;;;7.39;100.00
77877;BME280;67251;50.844;7.978;2023-11-19T01:35:44;98261.88;;;7.41;100.00
77877;BME280;67251;50.844;7.978;2023-11-19T01:38:09;98272.97;;;7.45;100.00
77877;BME280;67251;50.844;7.978;2023-11-19T01:40:35;98274.63;;;7.46;100.00
77877;BME280;67251;50.844;7.978;2023-11-19T01:48:27;98262.13;;;7.46;100.00
77877;BME280;67251;50.844;7.978;2023-11-19T01:50:53;98268.91;;;7.49;100.00
77877;BME280;67251;50.844;7.978;2023-11-19T01:53:19;98270.34;;;7.51;100.00
77877;BME280;67251;50.844;7.978;2023-11-19T01:55:46;98268.34;;;7.53;100.00
77877;BME280;67251;50.844;7.978;2023-11-19T01:58:12;98254.59;;;7.56;100.00
77877;BME280;67251;50.844;7.978;2023-11-19T02:00:38;98265.69;;;7.60;100.00
77877;BME280;67251;50.844;7.978;2023-11-19T02:03:05;98261.84;;;7.62;100.00
77877;BME280;67251;50.844;7.978;2023-11-19T02:05:33;98260.81;;;7.63;100.00
77877;BME280;67251;50.844;7.978;2023-11-19T02:07:59;98256.28;;;7.64;100.00
77877;BME280;67251;50.844;7.978;2023-11-19T02:10:24;98248.09;;;7.65;100.00
77877;BME280;67251;50.844;7.978;2023-11-19T02:12:50;98242.41;;;7.68;100.00
77877;BME280;67251;50.844;7.978;2023-11-19T02:15:16;98238.72;;;7.69;100.00
77877;BME280;67251;50.844;7.978;2023-11-19T02:17:44;98232.34;;;7.71;100.00
77877;BME280;67251;50.844;7.978;2023-11-19T02:20:09;98229.69;;;7.71;100.00
77877;BME280;67251;50.844;7.978;2023-11-19T02:22:37;98244.66;;;7.72;100.00
77877;BME280;67251;50.844;7.978;2023-11-19T02:25:07;98245.88;;;7.69;100.00
77877;BME280;67251;50.844;7.978;2023-11-19T02:27:43;98233.59;;;7.75;100.00
77877;BME280;67251;50.844;7.978;2023-11-19T02:30:11;98235.88;;;7.78;100.00
77877;BME280;67251;50.844;7.978;2023-11-19T02:32:37;98232.19;;;7.79;100.00
77877;BME280;67251;50.844;7.978;2023-11-19T02:35:06;98235.09;;;7.84;100.00
77877;BME280;67251;50.844;7.978;2023-11-19T02:37:33;98249.84;;;7.86;100.00
77877;BME280;67251;50.844;7.978;2023-11-19T02:39:59;98247.22;;;7.93;100.00
77877;BME280;67251;50.844;7.978;2023-11-19T02:42:34;98238.00;;;7.96;100.00
77877;BME280;67251;50.844;7.978;2023-11-19T02:45:01;98241.06;;;7.99;100.00
77877;BME280;67251;50.844;7.978;2023-11-19T02:47:26;98235.78;;;8.06;100.00
77877;BME280;67251;50.844;7.978;2023-11-19T02:49:53;98225.94;;;8.06;100.00
77877;BME280;67251;50.844;7.978;2023-11-19T02:52:19;98222.47;;;8.12;100.00
77877;BME280;67251;50.844;7.978;2023-11-19T02:54:44;98224.97;;;8.20;100.00
77877;BME280;67251;50.844;7.978;2023-11-19T02:57:11;98212.69;;;8.26;100.00
77877;BME280;67251;50.844;7.978;2023-11-19T02:59:38;98216.78;;;8.29;100.00
77877;BME280;67251;50.844;7.978;2023-11-19T03:02:07;98219.25;;;8.30;100.00
77877;BME280;67251;50.844;7.978;2023-11-19T03:04:37;98213.69;;;8.32;100.00
77877;BME280;67251;50.844;7.978;2023-11-19T03:07:05;98224.56;;;8.30;100.00
77877;BME280;67251;50.844;7.978;2023-11-19T03:09:30;98213.09;;;8.30;100.00
77877;BME280;67251;50.844;7.978;2023-11-19T03:11:55;98213.53;;;8.33;100.00
77877;BME280;67251;50.844;7.978;2023-11-19T03:14:21;98213.94;;;8.37;100.00
77877;BME280;67251;50.844;7.978;2023-11-19T03:16:48;98212.94;;;8.38;100.00
77877;BME280;67251;50.844;7.978;2023-11-19T03:19:13;98215.63;;;8.38;100.00
77877;BME280;67251;50.844;7.978;2023-11-19T03:21:38;98205.78;;;8.38;100.00
77877;BME280;67251;50.844;7.978;2023-11-19T03:24:04;98204.09;;;8.37;100.00
77877;BME280;67251;50.844;7.978;2023-11-19T03:26:30;98205.13;;;8.36;100.00
77877;BME280;67251;50.844;7.978;2023-11-19T03:28:55;98207.63;;;8.38;100.00
77877;BME280;67251;50.844;7.978;2023-11-19T03:31:22;98205.56;;;8.40;100.00
77877;BME280;67251;50.844;7.978;2023-11-19T03:33:48;98202.88;;;8.40;100.00
77877;BME280;67251;50.844;7.978;2023-11-19T03:36:13;98205.31;;;8.35;100.00
77877;BME280;67251;50.844;7.978;2023-11-19T03:38:38;98206.53;;;8.32;100.00
77877;BME280;67251;50.844;7.978;2023-11-19T03:41:14;98205.72;;;8.32;100.00
77877;BME280;67251;50.844;7.978;2023-11-19T03:43:40;98211.25;;;8.30;100.00
77877;BME280;67251;50.844;7.978;2023-11-19T03:46:19;98207.38;;;8.33;100.00
77877;BME280;67251;50.844;7.978;2023-11-19T03:48:46;98207.97;;;8.35;100.00
77877;BME280;67251;50.844;7.978;2023-11-19T03:51:12;98199.38;;;8.33;100.00
77877;BME280;67251;50.844;7.978;2023-11-19T03:53:43;98196.72;;;8.33;100.00
77877;BME280;67251;50.844;7.978;2023-11-19T03:56:09;98194.66;;;8.35;100.00
77877;BME280;67251;50.844;7.978;2023-11-19T03:58:35;98198.53;;;8.32;100.00
77877;BME280;67251;50.844;7.978;2023-11-19T04:01:01;98195.88;;;8.26;100.00
77877;BME280;67251;50.844;7.978;2023-11-19T04:03:27;98189.69;;;8.18;100.00
77877;BME280;67251;50.844;7.978;2023-11-19T04:05:53;98183.97;;;8.15;100.00
77877;BME280;67251;50.844;7.978;2023-11-19T04:08:18;98193.59;;;8.16;100.00
77877;BME280;67251;50.844;7.978;2023-11-19T04:10:43;98188.09;;;8.24;100.00
77877;BME280;67251;50.844;7.978;2023-11-19T04:13:09;98192.59;;;8.30;100.00
77877;BME280;67251;50.844;7.978;2023-11-19T04:15:34;98196.72;;;8.33;100.00
77877;BME280;67251;50.844;7.978;2023-11-19T04:18:00;98194.88;;;8.33;100.00
77877;BME280;67251;50.844;7.978;2023-11-19T04:20:25;98201.00;;;8.34;100.00
77877;BME280;67251;50.844;7.978;2023-11-19T04:22:51;98199.16;;;8.34;100.00
77877;BME280;67251;50.844;7.978;2023-11-19T04:25:16;98199.97;;;8.35;100.00
77877;BME280;67251;50.844;7.978;2023-11-19T04:27:42;98194.66;;;8.35;100.00
77877;BME280;67251;50.844;7.978;2023-11-19T04:30:07;98197.91;;;8.30;100.00
77877;BME280;67251;50.844;7.978;2023-11-19T04:32:36;98195.88;;;8.26;100.00
77877;BME280;67251;50.844;7.978;2023-11-19T04:35:01;98202.41;;;8.23;100.00
77877;BME280;67251;50.844;7.978;2023-11-19T04:37:26;98204.06;;;8.24;100.00
77877;BME280;67251;50.844;7.978;2023-11-19T04:39:52;98201.81;;;8.28;100.00
77877;BME280;67251;50.844;7.978;2023-11-19T04:42:17;98193.63;;;8.36;100.00
77877;BME280;67251;50.844;7.978;2023-11-19T04:44:43;98184.00;;;8.41;100.00
77877;BME280;67251;50.844;7.978;2023-11-19T04:47:08;98183.84;;;8.43;100.00
77877;BME280;67251;50.844;7.978;2023-11-19T04:49:40;98197.97;;;8.43;100.00
77877;BME280;67251;50.844;7.978;2023-11-19T04:52:07;98185.69;;;8.42;100.00
77877;BME280;67251;50.844;7.978;2023-11-19T04:54:33;98192.22;;;8.47;100.00
77877;BME280;67251;50.844;7.978;2023-11-19T04:56:59;98193.06;;;8.47;100.00
77877;BME280;67251;50.844;7.978;2023-11-19T04:59:25;98194.28;;;8.44;100.00
77877;BME280;67251;50.844;7.978;2023-11-19T05:01:50;98203.31;;;8.43;100.00
77877;BME280;67251;50.844;7.978;2023-11-19T05:04:16;98202.28;;;8.38;100.00
77877;BME280;67251;50.844;7.978;2023-11-19T05:06:41;98198.78;;;8.37;100.00
77877;BME280;67251;50.844;7.978;2023-11-19T05:09:07;98192.63;;;8.37;100.00
77877;BME280;67251;50.844;7.978;2023-11-19T05:11:35;98193.25;;;8.39;100.00
77877;BME280;67251;50.844;7.978;2023-11-19T05:14:05;98196.97;;;8.38;100.00
77877;BME280;67251;50.844;7.978;2023-11-19T05:16:30;98188.97;;;8.38;100.00
77877;BME280;67251;50.844;7.978;2023-11-19T05:18:55;98197.34;;;8.41;100.00
77877;BME280;67251;50.844;7.978;2023-11-19T05:21:21;98198.78;;;8.44;100.00
77877;BME280;67251;50.844;7.978;2023-11-19T05:23:46;98204.94;;;8.51;100.00
77877;BME280;67251;50.844;7.978;2023-11-19T05:26:22;98207.44;;;8.53;100.00
77877;BME280;67251;50.844;7.978;2023-11-19T05:28:49;98213.19;;;8.56;100.00
77877;BME280;67251;50.844;7.978;2023-11-19T05:31:16;98210.31;;;8.58;100.00
77877;BME280;67251;50.844;7.978;2023-11-19T05:33:41;98210.50;;;8.56;100.00
77877;BME280;67251;50.844;7.978;2023-11-19T05:36:07;98203.72;;;8.54;100.00
77877;BME280;67251;50.844;7.978;2023-11-19T05:38:33;98207.41;;;8.46;100.00
77877;BME280;67251;50.844;7.978;2023-11-19T05:40:59;98204.53;;;8.41;100.00
77877;BME280;67251;50.844;7.978;2023-11-19T05:43:24;98212.28;;;8.36;100.00
77877;BME280;67251;50.844;7.978;2023-11-19T05:45:50;98220.50;;;8.34;100.00
77877;BME280;67251;50.844;7.978;2023-11-19T05:48:15;98218.63;;;8.35;100.00
77877;BME280;67251;50.844;7.978;2023-11-19T05:50:41;98221.69;;;8.32;100.00
77877;BME280;67251;50.844;7.978;2023-11-19T05:53:07;98237.91;;;8.30;100.00
77877;BME280;67251;50.844;7.978;2023-11-19T05:55:38;98239.75;;;8.30;100.00
77877;BME280;67251;50.844;7.978;2023-11-19T05:58:11;98245.50;;;8.33;100.00
77877;BME280;67251;50.844;7.978;2023-11-19T06:00:38;98253.94;;;8.37;100.00
77877;BME280;67251;50.844;7.978;2023-11-19T06:03:04;98246.75;;;8.37;100.00
77877;BME280;67251;50.844;7.978;2023-11-19T06:05:29;98249.00;;;8.34;100.00
77877;BME280;67251;50.844;7.978;2023-11-19T06:07:55;98247.97;;;8.35;100.00
77877;BME280;67251;50.844;7.978;2023-11-19T06:10:20;98238.94;;;8.36;100.00
77877;BME280;67251;50.844;7.978;2023-11-19T06:12:46;98231.59;;;8.38;100.00
77877;BME280;67251;50.844;7.978;2023-11-19T06:15:12;98240.19;;;8.33;100.00
77877;BME280;67251;50.844;7.978;2023-11-19T06:17:38;98234.00;;;8.26;100.00
77877;BME280;67251;50.844;7.978;2023-11-19T06:20:04;98228.84;;;8.11;100.00
77877;BME280;67251;50.844;7.978;2023-11-19T06:22:30;98233.94;;;8.06;100.00
77877;BME280;67251;50.844;7.978;2023-11-19T06:24:56;98235.59;;;8.07;100.00
77877;BME280;67251;50.844;7.978;2023-11-19T06:27:21;98250.97;;;8.05;100.00
77877;BME280;67251;50.844;7.978;2023-11-19T06:29:47;98247.25;;;8.06;100.00
77877;BME280;67251;50.844;7.978;2023-11-19T06:32:13;98257.31;;;8.11;100.00
77877;BME280;67251;50.844;7.978;2023-11-19T06:34:38;98245.25;;;8.15;100.00
77877;BME280;67251;50.844;7.978;2023-11-19T06:37:04;98241.75;;;8.14;100.00
77877;BME280;67251;50.844;7.978;2023-11-19T06:39:29;98250.59;;;8.22;100.00
77877;BME280;67251;50.844;7.978;2023-11-19T06:41:55;98247.91;;;8.22;100.00
77877;BME280;67251;50.844;7.978;2023-11-19T06:44:20;98254.06;;;8.22;100.00
77877;BME280;67251;50.844;7.978;2023-11-19T06:46:45;98259.59;;;8.20;100.00
77877;BME280;67251;50.844;7.978;2023-11-19T06:49:11;98269.66;;;8.25;100.00
77877;BME280;67251;50.844;7.978;2023-11-19T06:51:41;98262.09;;;8.29;100.00
77877;BME280;67251;50.844;7.978;2023-11-19T06:54:07;98273.38;;;8.31;100.00
77877;BME280;67251;50.844;7.978;2023-11-19T06:56:32;98283.00;;;8.32;100.00
77877;BME280;67251;50.844;7.978;2023-11-19T06:58:57;98272.34;;;8.32;100.00
77877;BME280;67251;50.844;7.978;2023-11-19T07:01:23;98282.25;;;8.38;100.00
77877;BME280;67251;50.844;7.978;2023-11-19T07:03:48;98282.03;;;8.39;100.00
77877;BME280;67251;50.844;7.978;2023-11-19T07:06:14;98280.00;;;8.41;100.00
77877;BME280;67251;50.844;7.978;2023-11-19T07:08:43;98283.09;;;8.45;100.00
77877;BME280;67251;50.844;7.978;2023-11-19T07:11:12;98278.78;;;8.44;100.00
77877;BME280;67251;50.844;7.978;2023-11-19T07:13:39;98274.69;;;8.48;100.00
77877;BME280;67251;50.844;7.978;2023-11-19T07:16:05;98277.97;;;8.50;100.00
77877;BME280;67251;50.844;7.978;2023-11-19T07:18:31;98273.28;;;8.52;100.00
77877;BME280;67251;50.844;7.978;2023-11-19T07:20:57;98279.84;;;8.56;100.00
77877;BME280;67251;50.844;7.978;2023-11-19T07:23:22;98268.97;;;8.64;100.00
77877;BME280;67251;50.844;7.978;2023-11-19T07:25:48;98270.22;;;8.68;100.00
77877;BME280;67251;50.844;7.978;2023-11-19T07:28:15;98277.19;;;8.69;100.00
77877;BME280;67251;50.844;7.978;2023-11-19T07:30:41;98289.69;;;8.69;100.00
77877;BME280;67251;50.844;7.978;2023-11-19T07:33:07;98290.72;;;8.68;100.00
77877;BME280;67251;50.844;7.978;2023-11-19T07:35:33;98302.44;;;8.67;100.00
77877;BME280;67251;50.844;7.978;2023-11-19T07:37:59;98296.25;;;8.60;100.00
77877;BME280;67251;50.844;7.978;2023-11-19T07:40:25;98299.28;;;8.50;100.00
77877;BME280;67251;50.844;7.978;2023-11-19T07:42:50;98302.91;;;8.36;100.00
77877;BME280;67251;50.844;7.978;2023-11-19T07:45:16;98304.09;;;8.27;100.00
77877;BME280;67251;50.844;7.978;2023-11-19T07:47:42;98307.19;;;8.24;100.00
77877;BME280;67251;50.844;7.978;2023-11-19T07:50:10;98293.66;;;8.32;100.00
77877;BME280;67251;50.844;7.978;2023-11-19T07:52:38;98283.66;;;8.34;100.00
77877;BME280;67251;50.844;7.978;2023-11-19T07:55:04;98274.00;;;8.33;100.00
77877;BME280;67251;50.844;7.978;2023-11-19T07:57:30;98282.81;;;8.33;100.00
77877;BME280;67251;50.844;7.978;2023-11-19T07:59:57;98289.41;;;8.37;100.00
77877;BME280;67251;50.844;7.978;2023-11-19T08:02:22;98271.22;;;8.48;100.00
77877;BME280;67251;50.844;7.978;2023-11-19T08:04:49;98268.38;;;8.76;100.00
77877;BME280;67251;50.844;7.978;2023-11-19T08:07:18;98273.50;;;9.17;100.00
77877;BME280;67251;50.844;7.978;2023-11-19T08:09:44;98278.81;;;9.50;100.00
77877;BME280;67251;50.844;7.978;2023-11-19T08:12:09;98288.31;;;9.33;100.00
77877;BME280;67251;50.844;7.978;2023-11-19T08:14:35;98292.41;;;9.29;100.00
77877;BME280;67251;50.844;7.978;2023-11-19T08:17:00;98291.94;;;9.71;100.00
77877;BME280;67251;50.844;7.978;2023-11-19T08:19:26;98289.97;;;10.63;100.00
77877;BME280;67251;50.844;7.978;2023-11-19T08:21:51;98289.75;;;10.90;96.74
77877;BME280;67251;50.844;7.978;2023-11-19T08:24:17;98298.81;;;10.57;98.15
77877;BME280;67251;50.844;7.978;2023-11-19T08:26:42;98313.19;;;10.11;100.00
77877;BME280;67251;50.844;7.978;2023-11-19T08:29:08;98294.38;;;9.80;100.00
77877;BME280;67251;50.844;7.978;2023-11-19T08:31:34;98306.31;;;9.64;100.00
77877;BME280;67251;50.844;7.978;2023-11-19T08:34:00;98310.22;;;9.55;100.00
77877;BME280;67251;50.844;7.978;2023-11-19T08:36:25;98304.69;;;9.50;100.00
77877;BME280;67251;50.844;7.978;2023-11-19T08:38:53;98304.31;;;9.46;100.00
77877;BME280;67251;50.844;7.978;2023-11-19T08:41:18;98301.00;;;9.44;100.00
77877;BME280;67251;50.844;7.978;2023-11-19T08:43:44;98306.16;;;9.39;100.00
77877;BME280;67251;50.844;7.978;2023-11-19T08:46:11;98295.28;;;9.34;100.00
77877;BME280;67251;50.844;7.978;2023-11-19T08:48:36;98303.91;;;9.23;100.00
77877;BME280;67251;50.844;7.978;2023-11-19T08:51:02;98305.13;;;9.07;100.00
77877;BME280;67251;50.844;7.978;2023-11-19T08:53:28;98312.50;;;8.91;100.00
77877;BME280;67251;50.844;7.978;2023-11-19T08:55:53;98317.81;;;8.78;100.00
77877;BME280;67251;50.844;7.978;2023-11-19T08:58:18;98315.75;;;8.67;100.00
77877;BME280;67251;50.844;7.978;2023-11-19T09:00:44;98307.34;;;8.63;100.00
77877;BME280;67251;50.844;7.978;2023-11-19T09:03:09;98327.84;;;8.63;100.00
77877;BME280;67251;50.844;7.978;2023-11-19T09:05:34;98338.31;;;8.64;100.00
77877;BME280;67251;50.844;7.978;2023-11-19T09:08:00;98339.56;;;8.68;100.00
77877;BME280;67251;50.844;7.978;2023-11-19T09:10:25;98346.56;;;8.76;100.00
77877;BME280;67251;50.844;7.978;2023-11-19T09:12:52;98343.31;;;8.94;100.00
77877;BME280;67251;50.844;7.978;2023-11-19T09:15:17;98343.53;;;9.26;100.00
77877;BME280;67251;50.844;7.978;2023-11-19T09:17:42;98351.16;;;9.42;100.00
77877;BME280;67251;50.844;7.978;2023-11-19T09:20:08;98350.47;;;9.86;100.00
77877;BME280;67251;50.844;7.978;2023-11-19T09:22:37;98349.34;;;10.34;99.06
77877;BME280;67251;50.844;7.978;2023-11-19T09:25:02;98343.00;;;10.66;95.17
77877;BME280;67251;50.844;7.978;2023-11-19T09:27:28;98346.22;;;10.82;94.07
77877;BME280;67251;50.844;7.978;2023-11-19T09:29:54;98349.63;;;11.02;93.10
77877;BME280;67251;50.844;7.978;2023-11-19T09:32:22;98346.47;;;11.37;91.24
77877;BME280;67251;50.844;7.978;2023-11-19T09:34:48;98352.22;;;11.15;89.66
77877;BME280;67251;50.844;7.978;2023-11-19T09:37:13;98356.84;;;10.95;90.84
77877;BME280;67251;50.844;7.978;2023-11-19T09:39:38;98366.28;;;10.66;92.58
77877;BME280;67251;50.844;7.978;2023-11-19T09:42:05;98363.69;;;10.46;93.72
77877;BME280;67251;50.844;7.978;2023-11-19T09:44:31;98363.19;;;10.62;94.66
77877;BME280;67251;50.844;7.978;2023-11-19T09:46:58;98366.25;;;11.11;92.22
77877;BME280;67251;50.844;7.978;2023-11-19T09:49:26;98363.66;;;11.54;88.98
77877;BME280;67251;50.844;7.978;2023-11-19T09:51:52;98358.16;;;11.92;86.81
77877;BME280;67251;50.844;7.978;2023-11-19T09:54:17;98353.22;;;12.63;83.23
77877;BME280;67251;50.844;7.978;2023-11-19T09:56:43;98353.41;;;12.79;80.97
77877;BME280;67251;50.844;7.978;2023-11-19T09:59:09;98343.94;;;13.07;79.19
77877;BME280;67251;50.844;7.978;2023-11-19T10:01:37;98337.50;;;13.50;78.65
77877;BME280;67251;50.844;7.978;2023-11-19T10:04:03;98331.91;;;13.51;77.36
77877;BME280;67251;50.844;7.978;2023-11-19T10:06:28;98329.94;;;13.05;74.96
77877;BME280;67251;50.844;7.978;2023-11-19T10:08:54;98331.09;;;12.67;78.56
77877;BME280;67251;50.844;7.978;2023-11-19T10:11:20;98336.19;;;12.39;80.83
77877;BME280;67251;50.844;7.978;2023-11-19T10:13:47;98336.97;;;12.09;82.57
77877;BME280;67251;50.844;7.978;2023-11-19T10:16:14;98334.56;;;11.83;80.39
77877;BME280;67251;50.844;7.978;2023-11-19T10:18:46;98338.53;;;11.73;81.54
77877;BME280;67251;50.844;7.978;2023-11-19T10:21:12;98349.19;;;11.55;83.55
77877;BME280;67251;50.844;7.978;2023-11-19T10:23:57;98342.31;;;11.41;83.00
77877;BME280;67251;50.844;7.978;2023-11-19T10:26:25;98349.53;;;11.40;84.14
77877;BME280;67251;50.844;7.978;2023-11-19T10:28:51;98338.66;;;11.35;83.89
77877;BME280;67251;50.844;7.978;2023-11-19T10:31:17;98326.81;;;11.43;84.54
77877;BME280;67251;50.844;7.978;2023-11-19T10:33:44;98327.09;;;11.60;84.34
77877;BME280;67251;50.844;7.978;2023-11-19T10:36:13;98318.72;;;11.74;81.01
77877;BME280;67251;50.844;7.978;2023-11-19T10:38:39;98323.91;;;11.69;80.73
77877;BME280;67251;50.844;7.978;2023-11-19T10:41:05;98331.25;;;11.56;79.37
77877;BME280;67251;50.844;7.978;2023-11-19T10:43:31;98320.16;;;11.52;82.99
77877;BME280;67251;50.844;7.978;2023-11-19T10:46:13;98322.69;;;11.47;81.16
77877;BME280;67251;50.844;7.978;2023-11-19T10:48:40;98321.31;;;11.38;79.48
77877;BME280;67251;50.844;7.978;2023-11-19T10:51:07;98318.97;;;11.48;80.22
77877;BME280;67251;50.844;7.978;2023-11-19T10:53:37;98318.88;;;11.36;79.13
77877;BME280;67251;50.844;7.978;2023-11-19T10:56:06;98322.44;;;11.30;79.34
77877;BME280;67251;50.844;7.978;2023-11-19T10:58:35;98320.28;;;11.14;79.22
77877;BME280;67251;50.844;7.978;2023-11-19T11:01:03;98315.97;;;11.13;81.96
77877;BME280;67251;50.844;7.978;2023-11-19T11:03:39;98311.06;;;11.35;79.67
77877;BME280;67251;50.844;7.978;2023-11-19T11:06:05;98312.25;;;11.39;80.16
77877;BME280;67251;50.844;7.978;2023-11-19T11:08:31;98306.28;;;11.37;80.21
77877;BME280;67251;50.844;7.978;2023-11-19T11:10:57;98308.41;;;11.28;79.34
77877;BME280;67251;50.844;7.978;2023-11-19T11:13:24;98309.47;;;11.27;80.94
77877;BME280;67251;50.844;7.978;2023-11-19T11:15:50;98306.09;;;11.57;79.68
77877;BME280;67251;50.844;7.978;2023-11-19T11:18:16;98302.50;;;12.43;75.01
77877;BME280;67251;50.844;7.978;2023-11-19T11:20:45;98298.25;;;12.95;72.36
77877;BME280;67251;50.844;7.978;2023-11-19T11:36:25;98304.47;;;11.99;74.72
77877;BME280;67251;50.844;7.978;2023-11-19T11:38:51;98297.03;;;11.76;75.93
77877;BME280;67251;50.844;7.978;2023-11-19T11:41:22;98291.69;;;11.58;78.10
77877;BME280;67251;50.844;7.978;2023-11-19T11:43:49;98291.72;;;11.51;77.82
77877;BME280;67251;50.844;7.978;2023-11-19T11:49:03;98293.91;;;11.86;76.01
77877;BME280;67251;50.844;7.978;2023-11-19T11:57:10;98276.13;;;11.48;76.79
77877;BME280;67251;50.844;7.978;2023-11-19T12:02:12;98285.25;;;11.15;78.28
77877;BME280;67251;50.844;7.978;2023-11-19T12:04:39;98274.00;;;11.07;81.34
77877;BME280;67251;50.844;7.978;2023-11-19T12:07:11;98276.44;;;11.08;82.59
77877;BME280;67251;50.844;7.978;2023-11-19T12:09:40;98274.00;;;11.07;83.17
77877;BME280;67251;50.844;7.978;2023-11-19T12:20:05;98252.78;;;10.80;81.79
77877;BME280;67251;50.844;7.978;2023-11-19T12:22:35;98250.59;;;10.70;81.28
77877;BME280;67251;50.844;7.978;2023-11-19T12:25:02;98257.16;;;10.68;81.50
77877;BME280;67251;50.844;7.978;2023-11-19T12:27:29;98270.59;;;10.61;80.76
77877;BME280;67251;50.844;7.978;2023-11-19T12:29:54;98278.28;;;10.51;81.35
77877;BME280;67251;50.844;7.978;2023-11-19T12:32:22;98277.38;;;10.26;83.77
77877;BME280;67251;50.844;7.978;2023-11-19T12:34:47;98281.19;;;9.91;85.83
77877;BME280;67251;50.844;7.978;2023-11-19T12:37:13;98259.06;;;9.71;86.14
77877;BME280;67251;50.844;7.978;2023-11-19T12:39:38;98267.66;;;9.73;89.92
77877;BME280;67251;50.844;7.978;2023-11-19T12:42:05;98270.16;;;9.68;90.92
77877;BME280;67251;50.844;7.978;2023-11-19T12:44:30;98264.22;;;9.59;90.59
77877;BME280;67251;50.844;7.978;2023-11-19T12:49:26;98267.34;;;9.30;95.38
77877;BME280;67251;50.844;7.978;2023-11-19T12:51:51;98272.69;;;9.16;96.23
77877;BME280;67251;50.844;7.978;2023-11-19T12:54:17;98273.53;;;9.04;97.65
77877;BME280;67251;50.844;7.978;2023-11-19T12:56:53;98263.88;;;9.09;98.61
77877;BME280;67251;50.844;7.978;2023-11-19T12:59:19;98264.47;;;9.31;97.63
77877;BME280;67251;50.844;7.978;2023-11-19T13:01:57;98264.22;;;9.53;96.93
77877;BME280;67251;50.844;7.978;2023-11-19T13:04:23;98250.06;;;9.45;96.04
77877;BME280;67251;50.844;7.978;2023-11-19T13:06:52;98250.91;;;9.26;96.71
77877;BME280;67251;50.844;7.978;2023-11-19T13:09:25;98251.94;;;9.25;97.75
77877;BME280;67251;50.844;7.978;2023-11-19T13:11:50;98244.75;;;9.39;97.78
77877;BME280;67251;50.844;7.978;2023-11-19T13:14:17;98253.56;;;9.46;98.17
77877;BME280;67251;50.844;7.978;2023-11-19T13:16:42;98244.72;;;9.45;96.42
77877;BME280;67251;50.844;7.978;2023-11-19T13:19:08;98248.44;;;9.51;97.20
77877;BME280;67251;50.844;7.978;2023-11-19T13:21:46;98243.09;;;9.51;97.49
77877;BME280;67251;50.844;7.978;2023-11-19T13:24:13;98249.66;;;9.55;96.84
77877;BME280;67251;50.844;7.978;2023-11-19T13:26:47;98253.53;;;9.59;95.47
77877;BME280;67251;50.844;7.978;2023-11-19T13:29:16;98250.47;;;9.56;96.28
77877;BME280;67251;50.844;7.978;2023-11-19T13:31:41;98244.72;;;9.52;97.28
77877;BME280;67251;50.844;7.978;2023-11-19T13:34:07;98237.34;;;9.47;96.77
77877;BME280;67251;50.844;7.978;2023-11-19T13:36:33;98238.56;;;9.52;95.90